KBLV/BLV METAR and TAF weather

Enter ICAO airport designator
Station Type Date Time Source
KBLV METAR 2020/08/14 17:21 UTC NOAA

KBLV 141721Z AUTO 11005KT 10SM SCT028 27/23 A2997 RMK AO2 SLP148 CHINO RWY32R $


Station Type Date Time Source
KBLV Decoded METAR 2020/08/14 17:21 UTC NOAA

Belleville, Scott AFB/MidAmerica Airport, IL, United States (KBLV) 38-33N 089-51W
Aug 14, 2020 - 01:21 PM EDT / 2020.08.14 1721 UTC
Wind: from the ESE (110 degrees) at 6 MPH (5 KT):0
Visibility: 10 mile(s):0
Sky conditions: partly cloudy
Temperature: 80 F (27 C)
Dew Point: 73 F (23 C)
Relative Humidity: 78%
Pressure (altimeter): 29.97 in. Hg (1014 hPa)
ob: KBLV 141721Z AUTO 11005KT 10SM SCT028 27/23 A2997 RMK AO2 SLP148 CHINO RWY32R
cycle: 17

Station Type Date Time Source
KBLV TAF 2020/08/14 16:15 UTC NOAA

TAF TAF KBLV 141600Z 1416/1522 VRB06KT 9999 SCT020 QNH2989INS
BECMG 1506/1507 VRB06KT 6000 BR SCT015 QNH2990INS
TEMPO 1508/1512 0800 FG SCT002
BECMG 1511/1512 VRB06KT 9999 NSW FEW050 QNH2990INS TX32/1420Z TN20/1508Z

Example: see airport list